createdAt,value
2016-06-28T00:00:05.524Z,51.98
2016-06-28T00:01:06.124Z,52.27
2016-06-28T00:02:06.134Z,52.24
2016-06-28T00:03:06.144Z,52.34
2016-06-28T00:04:06.158Z,52.44
2016-06-28T00:05:05.567Z,52.05
2016-06-28T00:06:05.581Z,52.44
2016-06-28T00:07:06.194Z,52.14
2016-06-28T00:08:06.193Z,52.34
2016-06-28T00:09:06.233Z,52.14
2016-06-28T00:10:06.215Z,52.14
2016-06-28T00:11:05.645Z,52.34
2016-06-28T00:12:05.638Z,52.44
2016-06-28T00:13:05.690Z,52.34
2016-06-28T00:14:06.258Z,52.53
2016-06-28T00:15:06.265Z,52.24
2016-06-28T00:16:05.681Z,52.14
2016-06-28T00:17:06.285Z,52.53
2016-06-28T00:18:05.698Z,52.44
2016-06-28T00:19:06.300Z,52.24
2016-06-28T00:20:06.306Z,52.05
2016-06-28T00:21:06.323Z,52.14
2016-06-28T00:22:05.737Z,52.44
2016-06-28T00:23:05.758Z,52.34
2016-06-28T00:24:06.364Z,52.14
2016-06-28T00:25:05.768Z,52.24
2016-06-28T00:26:05.774Z,52.14
2016-06-28T00:27:06.390Z,52.24
2016-06-28T00:28:05.802Z,52.24
2016-06-28T00:29:06.403Z,52.24
2016-06-28T00:30:05.811Z,52.34
2016-06-28T00:31:06.419Z,52.14
2016-06-28T00:32:05.841Z,52.14
2016-06-28T00:33:06.458Z,52.24
2016-06-28T00:34:06.469Z,52.24
2016-06-28T00:35:06.459Z,52.34
2016-06-28T00:36:06.478Z,52.14
2016-06-28T00:37:05.882Z,52.24
2016-06-28T00:38:06.486Z,52.14
2016-06-28T00:39:05.914Z,52.24
2016-06-28T00:40:05.926Z,52.24
2016-06-28T00:41:06.524Z,52.24
2016-06-28T00:42:06.538Z,52.44
2016-06-28T00:43:05.963Z,52.34
2016-06-28T00:44:06.548Z,52.34
2016-06-28T00:45:06.569Z,52.44
2016-06-28T00:46:05.976Z,52.14
2016-06-28T00:47:06.583Z,52.24
2016-06-28T00:48:06.610Z,52.14
2016-06-28T00:49:06.608Z,52.14
2016-06-28T00:50:06.607Z,52.14
2016-06-28T00:51:06.042Z,52.14
2016-06-28T00:52:06.623Z,52.24
2016-06-28T00:53:06.042Z,52.05
2016-06-28T00:54:06.051Z,52.14
2016-06-28T00:55:06.066Z,52.05
2016-06-28T00:56:06.665Z,52.14
2016-06-28T00:57:06.677Z,52.05
2016-06-28T00:58:06.086Z,52.05
2016-06-28T00:59:06.704Z,52.14
2016-06-28T01:00:06.720Z,51.95
2016-06-28T01:01:06.734Z,51.95
2016-06-28T01:02:06.144Z,52.14
2016-06-28T01:03:06.741Z,52.14
2016-06-28T01:04:06.163Z,52.05
2016-06-28T01:05:06.158Z,52.14
2016-06-28T01:06:06.768Z,52.44
2016-06-28T01:07:06.216Z,52.14
2016-06-28T01:08:06.789Z,52.14
2016-06-28T01:09:06.795Z,51.95
2016-06-28T01:10:06.828Z,52.24
2016-06-28T01:11:06.814Z,51.95
2016-06-28T01:12:06.819Z,52.05
2016-06-28T01:13:06.831Z,52.44
2016-06-28T01:14:06.881Z,52.05
2016-06-28T01:15:06.264Z,52.34
2016-06-28T01:16:06.867Z,52.44
2016-06-28T01:17:06.874Z,52.34
2016-06-28T01:18:06.885Z,52.44
2016-06-28T01:19:06.298Z,52.34
2016-06-28T01:20:06.310Z,52.14
2016-06-28T01:21:06.914Z,52.34
2016-06-28T01:22:06.941Z,52.34
2016-06-28T01:23:06.930Z,52.34
2016-06-28T01:24:06.347Z,52.24
2016-06-28T01:25:06.957Z,52.14
2016-06-28T01:26:06.368Z,52.24
2016-06-28T01:27:06.973Z,52.24
2016-06-28T01:28:06.388Z,52.34
2016-06-28T01:29:06.995Z,52.24
2016-06-28T01:30:07.022Z,51.95
2016-06-28T01:31:06.409Z,52.44
2016-06-28T01:32:06.419Z,52.34
2016-06-28T01:33:06.428Z,52.44
2016-06-28T01:34:06.446Z,52.44
2016-06-28T01:35:07.078Z,52.14
2016-06-28T01:36:07.059Z,52.14
2016-06-28T01:37:07.087Z,52.14
2016-06-28T01:38:06.491Z,52.34
2016-06-28T01:39:07.091Z,52.14
2016-06-28T01:40:06.498Z,52.24
2016-06-28T01:41:07.109Z,52.14
2016-06-28T01:42:07.125Z,52.05
2016-06-28T01:43:07.132Z,52.44
2016-06-28T01:44:06.538Z,52.34
2016-06-28T01:45:07.160Z,52.24
2016-06-28T01:46:06.563Z,52.44
2016-06-28T01:47:07.168Z,52.44
2016-06-28T01:48:06.587Z,52.44
2016-06-28T01:49:07.186Z,52.24
2016-06-28T01:50:07.194Z,52.34
2016-06-28T01:51:06.603Z,52.34
2016-06-28T01:52:07.217Z,52.53
2016-06-28T01:53:07.226Z,52.24
2016-06-28T01:54:07.243Z,52.24
2016-06-28T01:55:07.242Z,52.24
2016-06-28T01:56:07.255Z,52.53
2016-06-28T01:57:07.271Z,52.44
2016-06-28T01:58:07.275Z,52.53
2016-06-28T01:59:07.279Z,52.44
2016-06-28T02:00:07.306Z,52.53
2016-06-28T02:01:07.320Z,52.63
2016-06-28T02:02:07.303Z,52.53
2016-06-28T02:03:07.354Z,52.53
2016-06-28T02:04:06.728Z,52.53
2016-06-28T02:05:06.750Z,52.53
2016-06-28T02:06:06.771Z,52.63
2016-06-28T02:07:07.371Z,52.34
2016-06-28T02:08:06.781Z,52.34
2016-06-28T02:09:06.793Z,52.24
2016-06-28T02:10:07.414Z,52.34
2016-06-28T02:11:07.406Z,52.53
2016-06-28T02:12:07.406Z,52.44
2016-06-28T02:13:06.826Z,52.63
2016-06-28T02:14:07.458Z,52.53
2016-06-28T02:15:06.841Z,52.44
2016-06-28T02:16:06.854Z,52.63
2016-06-28T02:17:06.859Z,52.53
2016-06-28T02:18:06.877Z,52.44
2016-06-28T02:19:07.475Z,52.44
2016-06-28T02:20:07.484Z,52.24
2016-06-28T02:21:07.510Z,52.34
2016-06-28T02:22:07.515Z,52.34
2016-06-28T02:23:07.522Z,52.24
2016-06-28T02:24:07.535Z,52.53
2016-06-28T02:25:06.958Z,52.34
2016-06-28T02:26:06.948Z,52.53
2016-06-28T02:27:07.566Z,52.44
2016-06-28T02:28:06.968Z,52.24
2016-06-28T02:29:06.978Z,52.53
2016-06-28T02:30:06.992Z,52.44
2016-06-28T02:31:07.006Z,52.34
2016-06-28T02:32:07.617Z,52.63
2016-06-28T02:33:07.619Z,52.44
2016-06-28T02:34:07.631Z,52.73
2016-06-28T02:35:07.651Z,52.82
2016-06-28T02:36:07.037Z,52.63
2016-06-28T02:37:07.661Z,52.63
2016-06-28T02:38:07.064Z,52.63
2016-06-28T02:39:07.672Z,52.44
2016-06-28T02:40:07.105Z,52.53
2016-06-28T02:41:07.102Z,52.73
2016-06-28T02:42:07.104Z,52.82
2016-06-28T02:43:07.706Z,52.82
2016-06-28T02:44:07.727Z,52.82
2016-06-28T02:45:07.133Z,52.63
2016-06-28T02:46:07.163Z,52.73
2016-06-28T02:47:07.157Z,52.63
2016-06-28T02:48:07.763Z,52.73
2016-06-28T02:49:07.178Z,52.63
2016-06-28T02:50:07.803Z,52.73
2016-06-28T02:51:07.184Z,52.34
2016-06-28T02:52:07.193Z,52.63
2016-06-28T02:53:07.206Z,52.82
2016-06-28T02:54:07.821Z,52.73
2016-06-28T02:55:07.830Z,52.63
2016-06-28T02:56:07.238Z,52.63
2016-06-28T02:57:07.858Z,52.63
2016-06-28T02:58:07.270Z,52.53
2016-06-28T02:59:07.269Z,52.34
2016-06-28T03:00:07.881Z,52.63
2016-06-28T03:01:07.289Z,52.73
2016-06-28T03:02:07.930Z,52.73
2016-06-28T03:03:07.324Z,52.82
2016-06-28T03:04:07.914Z,52.92
2016-06-28T03:05:07.923Z,52.82
2016-06-28T03:06:07.346Z,52.82
2016-06-28T03:07:07.359Z,52.92
2016-06-28T03:08:07.362Z,53.11
2016-06-28T03:09:07.980Z,52.92
2016-06-28T03:10:07.376Z,52.73
2016-06-28T03:11:07.390Z,52.82
2016-06-28T03:12:08.013Z,53.02
2016-06-28T03:13:07.405Z,52.73
2016-06-28T03:14:07.415Z,52.82
2016-06-28T03:15:07.430Z,52.82
2016-06-28T03:16:07.439Z,52.82
2016-06-28T03:17:07.438Z,52.73
2016-06-28T03:18:08.054Z,52.82
2016-06-28T03:19:08.066Z,52.73
2016-06-28T03:20:07.487Z,53.02
2016-06-28T03:21:07.479Z,52.73
2016-06-28T03:22:08.088Z,53.02
2016-06-28T03:23:08.104Z,52.73
2016-06-28T03:24:08.115Z,52.92
2016-06-28T03:25:08.126Z,53.02
2016-06-28T03:26:07.528Z,52.73
2016-06-28T03:27:07.538Z,52.73
2016-06-28T03:28:08.172Z,52.82
2016-06-28T03:29:07.569Z,52.92
2016-06-28T03:30:07.579Z,53.31
2016-06-28T03:31:07.578Z,52.82
2016-06-28T03:32:07.583Z,53.38
2016-06-28T03:33:07.636Z,53.21
2016-06-28T03:34:07.614Z,53.28
2016-06-28T03:35:08.216Z,53.28
2016-06-28T03:36:07.626Z,53.02
2016-06-28T03:37:08.241Z,52.63
2016-06-28T03:38:08.248Z,53.02
2016-06-28T03:39:07.660Z,52.82
2016-06-28T03:40:07.677Z,52.82
2016-06-28T03:41:08.271Z,52.82
2016-06-28T03:42:07.685Z,52.73
2016-06-28T03:43:08.299Z,52.92
2016-06-28T03:44:08.300Z,52.63
2016-06-28T03:45:07.723Z,52.82
2016-06-28T03:46:07.723Z,52.63
2016-06-28T03:47:08.336Z,52.92
2016-06-28T03:48:08.350Z,52.73
2016-06-28T03:49:08.360Z,52.82
2016-06-28T03:50:07.777Z,52.82
2016-06-28T03:51:08.373Z,52.82
2016-06-28T03:52:07.798Z,52.82
2016-06-28T03:53:07.793Z,52.73
2016-06-28T03:54:07.802Z,52.92
2016-06-28T03:55:07.819Z,53.28
2016-06-28T03:56:08.416Z,52.63
2016-06-28T03:57:07.830Z,52.82
2016-06-28T03:58:07.849Z,53.11
2016-06-28T03:59:08.468Z,53.28
2016-06-28T04:00:07.882Z,53.19
2016-06-28T04:01:08.480Z,53.28
2016-06-28T04:02:07.873Z,52.82
2016-06-28T04:03:07.890Z,52.89
2016-06-28T04:04:08.495Z,53.02
2016-06-28T04:05:08.507Z,52.8
2016-06-28T04:06:07.933Z,53.28
2016-06-28T04:07:07.926Z,53.38
2016-06-28T04:08:07.937Z,53.11
2016-06-28T04:09:08.543Z,53.19
2016-06-28T04:10:07.962Z,52.8
2016-06-28T04:11:07.977Z,53.28
2016-06-28T04:12:07.972Z,52.89
2016-06-28T04:13:08.585Z,52.73
2016-06-28T04:14:08.606Z,52.73
2016-06-28T04:15:08.008Z,52.73
2016-06-28T04:16:08.010Z,53.41
2016-06-28T04:17:08.628Z,53.41
2016-06-28T04:18:08.630Z,53.19
2016-06-28T04:19:08.046Z,53.19
2016-06-28T04:20:08.057Z,53.28
2016-06-28T04:21:08.671Z,52.7
2016-06-28T04:22:08.077Z,52.82
2016-06-28T04:23:08.685Z,53.31
2016-06-28T04:24:08.091Z,52.8
2016-06-28T04:25:08.104Z,52.7
2016-06-28T04:26:08.719Z,53.09
2016-06-28T04:27:08.113Z,53.09
2016-06-28T04:28:08.128Z,53.09
2016-06-28T04:29:08.141Z,52.99
2016-06-28T04:30:08.797Z,53.11
2016-06-28T04:31:08.761Z,53.09
2016-06-28T04:32:08.789Z,53.09
2016-06-28T04:33:08.782Z,52.7
2016-06-28T04:34:08.798Z,52.99
2016-06-28T04:35:08.834Z,53.09
2016-06-28T04:36:08.219Z,52.8
2016-06-28T04:37:08.827Z,52.61
2016-06-28T04:38:08.235Z,53.38
2016-06-28T04:39:08.842Z,52.8
2016-06-28T04:40:08.247Z,53.31
2016-06-28T04:41:08.268Z,53.28
2016-06-28T04:42:08.275Z,52.7
2016-06-28T04:43:08.872Z,53.09
2016-06-28T04:44:08.892Z,53.21
2016-06-28T04:45:08.901Z,53.09
2016-06-28T04:46:08.896Z,52.7
2016-06-28T04:47:08.908Z,53.28
2016-06-28T04:48:08.923Z,53.19
2016-06-28T04:49:08.331Z,53.28
2016-06-28T04:50:08.939Z,53.28
2016-06-28T04:51:08.946Z,53.31
2016-06-28T04:52:08.365Z,52.89
2016-06-28T04:53:08.372Z,52.73
2016-06-28T04:54:09.025Z,53.41
2016-06-28T04:55:08.383Z,53.31
2016-06-28T04:56:09.006Z,53.19
2016-06-28T04:57:08.414Z,53.11
2016-06-28T04:58:09.028Z,53.19
2016-06-28T04:59:08.431Z,53.09
2016-06-28T05:00:09.029Z,53.28
2016-06-28T05:01:08.469Z,53.31
2016-06-28T05:02:08.457Z,53.28
2016-06-28T05:03:09.070Z,53.09
2016-06-28T05:04:08.507Z,53.19
2016-06-28T05:05:09.094Z,52.8
2016-06-28T05:06:08.511Z,52.63
2016-06-28T05:07:09.116Z,53.28
2016-06-28T05:08:08.513Z,52.73
2016-06-28T05:09:08.515Z,53.31
2016-06-28T05:10:08.535Z,53.31
2016-06-28T05:11:09.143Z,53.28
2016-06-28T05:12:09.162Z,53.19
2016-06-28T05:13:08.563Z,52.89
2016-06-28T05:14:08.565Z,52.7
2016-06-28T05:15:08.577Z,53.21
2016-06-28T05:16:08.595Z,53.11
2016-06-28T05:17:08.617Z,53.28
2016-06-28T05:18:09.206Z,53.11
2016-06-28T05:19:08.623Z,53.09
2016-06-28T05:20:09.230Z,53.02
2016-06-28T05:21:08.642Z,53.11
2016-06-28T05:22:08.655Z,53.11
2016-06-28T05:23:08.661Z,53.31
2016-06-28T05:24:08.670Z,53.41
2016-06-28T05:25:08.675Z,53.21
2016-06-28T05:26:09.289Z,53.19
2016-06-28T05:27:09.309Z,53.21
2016-06-28T05:28:08.719Z,53.31
2016-06-28T05:29:09.315Z,53.21
2016-06-28T05:30:09.323Z,53.02
2016-06-28T05:32:08.740Z,53.21
2016-06-28T05:33:08.766Z,53.02
2016-06-28T05:34:09.367Z,52.99
2016-06-28T05:35:09.366Z,53.02
2016-06-28T05:36:09.378Z,52.99
2016-06-28T05:37:08.795Z,52.99
2016-06-28T05:38:09.403Z,53.02
2016-06-28T05:39:08.835Z,53.09
2016-06-28T05:40:09.420Z,52.99
2016-06-28T05:41:09.431Z,53.21
2016-06-28T05:42:09.438Z,53.02
2016-06-28T05:43:08.857Z,53.21
2016-06-28T05:44:09.459Z,52.82
2016-06-28T05:45:08.881Z,53.31
2016-06-28T05:46:09.476Z,53.31
2016-06-28T05:47:08.894Z,53.21
2016-06-28T05:48:09.494Z,53.31
2016-06-28T05:49:09.569Z,53.21
2016-06-28T05:50:09.513Z,53.11
2016-06-28T05:51:09.522Z,53.21
2016-06-28T05:52:09.527Z,53.31
2016-06-28T05:53:09.544Z,53.41
2016-06-28T05:54:09.556Z,52.92
2016-06-28T05:55:09.571Z,52.82
2016-06-28T05:56:09.585Z,52.73
2016-06-28T05:57:08.992Z,52.82
2016-06-28T05:58:09.017Z,53.02
2016-06-28T05:59:09.607Z,53.02
2016-06-28T06:00:09.025Z,52.82
2016-06-28T06:01:09.630Z,52.92
2016-06-28T06:02:09.031Z,52.82
2016-06-28T06:03:09.040Z,52.92
2016-06-28T06:04:09.646Z,52.73
2016-06-28T06:05:09.662Z,52.92
2016-06-28T06:06:09.075Z,52.73
2016-06-28T06:07:09.680Z,52.63
2016-06-28T06:08:09.691Z,53.02
2016-06-28T06:09:09.699Z,52.82
2016-06-28T06:10:09.710Z,53.02
2016-06-28T06:11:09.125Z,52.92
2016-06-28T06:12:09.728Z,52.82
2016-06-28T06:13:09.134Z,53.02
2016-06-28T06:14:09.756Z,53.02
2016-06-28T06:15:09.758Z,53.02
2016-06-28T06:16:09.776Z,52.82
2016-06-28T06:17:09.178Z,52.92
2016-06-28T06:18:09.803Z,52.92
2016-06-28T06:19:09.205Z,52.82
2016-06-28T06:20:09.826Z,52.82
2016-06-28T06:21:10.041Z,52.82
2016-06-28T06:22:09.237Z,52.73
2016-06-28T06:23:09.868Z,52.63
2016-06-28T06:24:09.855Z,52.73
2016-06-28T06:25:09.855Z,52.73
2016-06-28T06:26:09.277Z,52.82
2016-06-28T06:27:09.381Z,52.73
2016-06-28T06:28:09.892Z,52.63
2016-06-28T06:29:09.301Z,52.63
2016-06-28T06:30:09.293Z,52.73
2016-06-28T06:31:09.322Z,52.63
2016-06-28T06:32:09.347Z,52.63
2016-06-28T06:33:09.930Z,52.82
2016-06-28T06:34:09.944Z,52.82
2016-06-28T06:35:09.356Z,52.63
2016-06-28T06:36:09.961Z,52.82
2016-06-28T06:37:09.374Z,52.63
2016-06-28T06:38:09.998Z,52.82
2016-06-28T06:39:10.000Z,52.73
2016-06-28T06:40:10.004Z,52.73
2016-06-28T06:41:09.442Z,52.53
2016-06-28T06:42:10.022Z,52.53
2016-06-28T06:43:09.434Z,52.44
2016-06-28T06:44:10.049Z,52.44
2016-06-28T06:45:09.452Z,52.53
2016-06-28T06:46:10.087Z,52.44
2016-06-28T06:47:10.067Z,52.63
2016-06-28T06:48:10.076Z,52.24
2016-06-28T06:49:09.491Z,52.24
2016-06-28T06:50:09.509Z,52.34
2016-06-28T06:51:10.124Z,52.24
2016-06-28T06:52:09.526Z,52.24
2016-06-28T06:53:09.530Z,52.53
2016-06-28T06:54:10.147Z,52.24
2016-06-28T06:55:10.150Z,52.24
2016-06-28T06:56:09.572Z,52.24
2016-06-28T06:57:09.801Z,52.24
2016-06-28T06:58:09.590Z,52.05
2016-06-28T06:59:09.584Z,52.05
2016-06-28T07:00:09.598Z,52.05
2016-06-28T07:01:10.203Z,52.14
2016-06-28T07:02:10.208Z,52.14
2016-06-28T07:03:09.616Z,52.24
2016-06-28T07:04:10.245Z,52.14
2016-06-28T07:05:09.658Z,52.27
2016-06-28T07:06:10.264Z,52.17
2016-06-28T07:07:10.262Z,52.17
2016-06-28T07:08:10.265Z,52.17
2016-06-28T07:09:09.686Z,51.98
2016-06-28T07:10:10.285Z,52.05
2016-06-28T07:11:09.706Z,52.17
2016-06-28T07:12:10.314Z,52.17
2016-06-28T07:13:10.312Z,52.27
2016-06-28T07:14:10.333Z,52.56
2016-06-28T07:15:10.340Z,52.27
2016-06-28T07:16:09.750Z,52.36
2016-06-28T07:17:09.761Z,52.46
2016-06-28T07:18:10.377Z,52.27
2016-06-28T07:19:10.393Z,52.36
2016-06-28T07:20:10.398Z,52.36
2016-06-28T07:21:10.391Z,52.27
2016-06-28T07:22:10.404Z,52.08
2016-06-28T07:23:10.425Z,52.08
2016-06-28T07:24:10.430Z,52.08
2016-06-28T07:25:09.841Z,51.98
2016-06-28T07:26:09.842Z,51.88
2016-06-28T07:27:09.956Z,51.78
2016-06-28T07:28:10.479Z,51.88
2016-06-28T07:29:09.872Z,51.78
2016-06-28T07:30:10.487Z,51.88
2016-06-28T07:31:10.490Z,51.78
2016-06-28T07:32:09.910Z,51.78
2016-06-28T07:33:09.914Z,51.68
2016-06-28T07:34:10.537Z,51.78
2016-06-28T07:35:10.559Z,51.78
2016-06-28T07:36:09.972Z,51.78
2016-06-28T07:37:09.959Z,51.78
2016-06-28T07:38:09.963Z,51.68
2016-06-28T07:39:09.982Z,51.81
2016-06-28T07:40:10.602Z,51.9
2016-06-28T07:41:10.003Z,51.78
2016-06-28T07:42:10.005Z,51.88
2016-06-28T07:43:10.026Z,51.81
2016-06-28T07:44:10.625Z,51.78
2016-06-28T07:45:10.626Z,51.88
2016-06-28T07:46:10.050Z,51.78
2016-06-28T07:47:10.050Z,51.88
2016-06-28T07:48:10.064Z,51.81
2016-06-28T07:49:10.674Z,51.88
2016-06-28T07:50:10.688Z,51.9
2016-06-28T07:51:10.703Z,51.9
2016-06-28T07:52:10.111Z,51.72
2016-06-28T07:53:10.121Z,51.68
2016-06-28T07:54:10.723Z,51.78
2016-06-28T07:55:10.745Z,51.9
2016-06-28T07:56:10.746Z,51.72
2016-06-28T07:57:10.161Z,52
2016-06-28T07:58:10.749Z,52
2016-06-28T07:59:10.171Z,51.9
2016-06-28T08:00:10.187Z,51.9
2016-06-28T08:01:10.190Z,51.72
2016-06-28T08:02:10.214Z,51.81
2016-06-28T08:03:10.810Z,51.9
2016-06-28T08:04:10.822Z,51.72
2016-06-28T08:05:10.231Z,51.81
2016-06-28T08:06:10.833Z,51.72
2016-06-28T08:07:10.289Z,51.9
2016-06-28T08:08:10.858Z,51.9
2016-06-28T08:09:10.278Z,51.9
2016-06-28T08:10:10.875Z,51.9
2016-06-28T08:11:10.893Z,51.72
2016-06-28T08:12:10.903Z,51.81
2016-06-28T08:13:10.303Z,51.81
2016-06-28T08:14:10.324Z,51.9
2016-06-28T08:15:10.933Z,51.81
2016-06-28T08:16:10.941Z,51.72
2016-06-28T08:17:10.353Z,51.62
2016-06-28T08:18:10.355Z,51.81
2016-06-28T08:19:10.372Z,51.72
2016-06-28T08:20:10.367Z,51.81
2016-06-28T08:21:10.991Z,51.72
2016-06-28T08:22:10.398Z,51.62
2016-06-28T08:23:10.414Z,51.52
2016-06-28T08:24:11.024Z,51.72
2016-06-28T08:25:10.444Z,51.62
2016-06-28T08:26:10.433Z,51.72
2016-06-28T08:27:11.265Z,51.62
2016-06-28T08:28:10.449Z,51.52
2016-06-28T08:29:10.457Z,51.62
2016-06-28T08:30:11.076Z,51.81
2016-06-28T08:31:10.478Z,51.62
2016-06-28T08:32:11.095Z,51.52
2016-06-28T08:33:10.502Z,51.62
2016-06-28T08:34:11.110Z,51.62
2016-06-28T08:35:10.530Z,51.81
2016-06-28T08:36:11.127Z,51.81
2016-06-28T08:37:10.547Z,51.81
2016-06-28T08:38:10.554Z,51.9
2016-06-28T08:39:10.688Z,52.1
2016-06-28T08:40:10.592Z,52.87
2016-06-28T08:41:10.599Z,53.26
2016-06-28T08:42:11.189Z,53.17
2016-06-28T08:43:10.617Z,52.97
2016-06-28T08:44:11.218Z,53.17
2016-06-28T08:45:10.631Z,53.26
2016-06-28T08:46:10.634Z,53.94
2016-06-28T08:47:10.647Z,54.03
2016-06-28T08:48:11.255Z,54.43
2016-06-28T08:49:10.657Z,53.26
2016-06-28T08:50:10.686Z,54.13
2016-06-28T08:51:10.687Z,54.43
2016-06-28T08:52:11.294Z,54.23
2016-06-28T08:53:10.710Z,53.85
2016-06-28T08:54:11.311Z,53.65
2016-06-28T08:55:10.717Z,53.85
2016-06-28T08:56:11.327Z,53.75
2016-06-28T08:57:11.343Z,54.13
2016-06-28T08:58:11.343Z,54.23
2016-06-28T08:59:11.371Z,53.75
2016-06-28T09:00:11.355Z,54.03
2016-06-28T09:01:11.381Z,53.26
2016-06-28T09:02:11.382Z,53.36
2016-06-28T09:03:10.802Z,53.55
2016-06-28T09:04:11.399Z,53.36
2016-06-28T09:05:10.820Z,53.85
2016-06-28T09:06:10.821Z,53.67
2016-06-28T09:07:10.833Z,53.65
2016-06-28T09:08:11.459Z,53.49
2016-06-28T09:09:10.849Z,53.36
2016-06-28T09:10:10.880Z,53.45
2016-06-28T09:11:11.097Z,52.97
2016-06-28T09:12:10.883Z,53
2016-06-28T09:13:10.895Z,53.58
2016-06-28T09:14:11.501Z,53.49
2016-06-28T09:15:11.512Z,53
2016-06-28T09:16:10.925Z,53.09
2016-06-28T09:17:10.949Z,53
2016-06-28T09:18:10.943Z,53.29
2016-06-28T09:19:11.562Z,53.39
2016-06-28T09:20:11.562Z,53.39
2016-06-28T09:21:11.574Z,52.9
2016-06-28T09:22:10.982Z,52.9
2016-06-28T09:23:11.590Z,52.71
2016-06-28T09:24:11.007Z,52.71
2016-06-28T09:25:11.014Z,52.42
2016-06-28T09:26:11.643Z,52.71
2016-06-28T09:27:11.591Z,52.73
2016-06-28T09:28:11.639Z,52.71
2016-06-28T09:29:11.656Z,52.8
2016-06-28T09:30:11.080Z,52.61
2016-06-28T09:31:11.680Z,52.42
2016-06-28T09:32:11.690Z,52.51
2016-06-28T09:33:11.697Z,52.61
2016-06-28T09:34:11.701Z,52.61
2016-06-28T09:35:11.117Z,52.8
2016-06-28T09:36:11.735Z,52.42
2016-06-28T09:37:11.745Z,52.51
2016-06-28T09:38:11.739Z,52.71
2016-06-28T09:39:11.753Z,52.9
2016-06-28T09:40:11.768Z,52.8
2016-06-28T09:41:11.182Z,52.8
2016-06-28T09:42:11.190Z,52.71
2016-06-28T09:43:11.799Z,52.51
2016-06-28T09:44:11.212Z,52.8
2016-06-28T09:45:11.819Z,52.61
2016-06-28T09:46:11.229Z,52.42
2016-06-28T09:47:11.842Z,52.51
2016-06-28T09:48:11.254Z,52.51
2016-06-28T09:49:11.252Z,52.61
2016-06-28T09:50:11.262Z,52.32
2016-06-28T09:51:11.276Z,52.44
2016-06-28T09:52:11.918Z,52.22
2016-06-28T09:53:11.888Z,52.51
2016-06-28T09:54:11.910Z,52.06
2016-06-28T09:55:11.911Z,52.03
2016-06-28T09:56:11.932Z,52.15
2016-06-28T09:57:11.933Z,52.34
2016-06-28T09:58:11.343Z,52.44
2016-06-28T09:59:11.954Z,52.25
2016-06-28T10:00:11.365Z,52.34
2016-06-28T10:01:11.967Z,52.25
2016-06-28T10:02:11.983Z,52.44
2016-06-28T10:03:11.979Z,52.34
2016-06-28T10:04:11.402Z,52.34
2016-06-28T10:05:12.021Z,51.96
2016-06-28T10:06:12.022Z,52.06
2016-06-28T10:07:12.029Z,51.86
2016-06-28T10:08:12.042Z,51.76
2016-06-28T10:09:11.451Z,51.76
2016-06-28T10:10:12.063Z,51.96
2016-06-28T10:11:11.461Z,51.96
2016-06-28T10:12:11.489Z,51.86
2016-06-28T10:13:12.083Z,51.86
2016-06-28T10:14:11.500Z,51.96
2016-06-28T10:15:12.117Z,51.86
2016-06-28T10:16:11.523Z,51.96
2016-06-28T10:17:11.530Z,51.86
2016-06-28T10:18:11.535Z,51.76
2016-06-28T10:19:12.145Z,51.86
2016-06-28T10:20:12.154Z,52.25
2016-06-28T10:21:12.169Z,52.34
2016-06-28T10:22:12.189Z,52.15
2016-06-28T10:23:11.588Z,52.54
2016-06-28T10:24:11.598Z,52.47
2016-06-28T10:25:11.650Z,52.37
2016-06-28T10:26:11.623Z,52.34
2016-06-28T10:27:11.627Z,52.25
2016-06-28T10:28:11.637Z,52.37
2016-06-28T10:29:12.290Z,52.37
2016-06-28T10:30:11.663Z,52.08
2016-06-28T10:31:12.272Z,52.28
2016-06-28T10:32:11.689Z,52.28
2016-06-28T10:33:12.284Z,52.18
2016-06-28T10:34:11.713Z,52.66
2016-06-28T10:35:11.716Z,52.95
2016-06-28T10:36:11.721Z,53.15
2016-06-28T10:37:12.327Z,53.15
2016-06-28T10:38:12.341Z,53.53
2016-06-28T10:39:12.349Z,53.73
2016-06-28T10:40:12.367Z,53.22
2016-06-28T10:41:11.768Z,53.24
2016-06-28T10:42:11.796Z,53.44
2016-06-28T10:43:11.804Z,53.73
2016-06-28T10:44:12.404Z,54.11
2016-06-28T10:45:12.414Z,53.34
2016-06-28T10:46:12.423Z,54.11
2016-06-28T10:47:12.453Z,53.34
2016-06-28T10:48:11.864Z,53.05
2016-06-28T10:49:12.459Z,52.78
2016-06-28T10:50:12.467Z,53.37
2016-06-28T10:51:12.475Z,52.88
2016-06-28T10:52:11.896Z,52.98
2016-06-28T10:53:12.511Z,52.78
2016-06-28T10:54:12.506Z,52.78
2016-06-28T10:55:11.926Z,52.5
2016-06-28T10:56:12.528Z,52.4
2016-06-28T10:57:12.541Z,52.5
2016-06-28T10:58:12.538Z,52.69
2016-06-28T10:59:12.555Z,52.59
2016-06-28T11:00:12.571Z,52.98
2016-06-28T11:01:12.580Z,53.15
2016-06-28T11:02:12.614Z,52.86
2016-06-28T11:03:12.005Z,52.95
2016-06-28T11:04:12.613Z,53.17
2016-06-28T11:05:12.622Z,52.98
2016-06-28T11:06:12.038Z,52.98
2016-06-28T11:07:12.647Z,52.78
2016-06-28T11:08:12.659Z,52.59
2016-06-28T11:09:12.666Z,52.78
2016-06-28T11:10:12.074Z,52.69
2016-06-28T11:11:12.689Z,52.98
2016-06-28T11:12:12.691Z,52.95
2016-06-28T11:13:12.708Z,52.86
2016-06-28T11:14:12.711Z,52.95
2016-06-28T11:15:12.729Z,53.05
2016-06-28T11:16:12.758Z,52.69
2016-06-28T11:17:12.757Z,52.5
2016-06-28T11:18:12.760Z,52.5
2016-06-28T11:19:12.765Z,52.59
2016-06-28T11:20:12.179Z,52.4
2016-06-28T11:21:12.786Z,52.59
2016-06-28T11:22:12.797Z,52.59
2016-06-28T11:23:12.842Z,52.4
2016-06-28T11:24:12.823Z,52.11
2016-06-28T11:25:12.218Z,52.2
2016-06-28T11:26:12.831Z,52.3
2016-06-28T11:27:12.258Z,52.3
2016-06-28T11:28:12.860Z,52.4
2016-06-28T11:29:12.271Z,52.5
2016-06-28T11:30:12.893Z,52.2
2016-06-28T11:31:12.890Z,52.01
2016-06-28T11:32:12.320Z,52.11
2016-06-28T11:33:12.920Z,51.91
2016-06-28T11:34:12.917Z,51.93
2016-06-28T11:35:12.930Z,51.91
2016-06-28T11:36:12.343Z,51.91
2016-06-28T11:37:12.951Z,52.03
2016-06-28T11:38:12.960Z,51.93
2016-06-28T11:39:12.368Z,51.93
2016-06-28T11:40:12.405Z,51.84
2016-06-28T11:41:12.391Z,51.93
2016-06-28T11:42:12.405Z,51.93
2016-06-28T11:43:13.015Z,51.84
2016-06-28T11:44:13.024Z,51.75
2016-06-28T11:45:12.429Z,51.84
2016-06-28T11:46:13.064Z,51.72
2016-06-28T11:47:12.449Z,51.91
2016-06-28T11:48:12.688Z,52.3
2016-06-28T11:49:13.071Z,52.5
2016-06-28T11:50:13.086Z,52.69
2016-06-28T11:51:12.498Z,52.3
2016-06-28T11:52:12.519Z,52.4
2016-06-28T11:53:12.528Z,52.4
2016-06-28T11:54:13.124Z,52.3
2016-06-28T11:55:12.538Z,52.3
2016-06-28T11:56:12.550Z,52.3
2016-06-28T11:57:13.184Z,52.42
2016-06-28T11:58:13.189Z,52.33
2016-06-28T11:59:12.586Z,52.52
2016-06-28T12:00:13.234Z,52.42
2016-06-28T12:01:12.620Z,52.5
2016-06-28T12:02:13.207Z,52.62
2016-06-28T12:03:13.244Z,52.62
2016-06-28T12:04:13.248Z,52.23
2016-06-28T12:05:13.271Z,52.42
2016-06-28T12:06:12.651Z,52.13
2016-06-28T12:07:12.719Z,52.03
2016-06-28T12:08:12.668Z,51.93
2016-06-28T12:09:12.686Z,51.84
2016-06-28T12:10:13.299Z,51.93
2016-06-28T12:11:13.307Z,51.84
2016-06-28T12:12:13.336Z,51.93
2016-06-28T12:13:13.329Z,52.03
2016-06-28T12:14:13.358Z,51.84
2016-06-28T12:15:13.370Z,51.93
2016-06-28T12:16:12.756Z,51.93
2016-06-28T12:17:13.363Z,52.03
2016-06-28T12:18:13.390Z,51.93
2016-06-28T12:19:13.385Z,51.93
2016-06-28T12:20:13.409Z,52.13
2016-06-28T12:21:12.806Z,52.13
2016-06-28T12:22:13.423Z,52.33
2016-06-28T12:23:12.835Z,52.33
2016-06-28T12:24:13.439Z,52.23
2016-06-28T12:25:12.876Z,52.03
2016-06-28T12:26:13.466Z,52.03
2016-06-28T12:27:13.489Z,52.33
2016-06-28T12:28:12.887Z,52.33
2016-06-28T12:29:12.949Z,52.33
2016-06-28T12:30:12.912Z,52.52
2016-06-28T12:31:12.920Z,52.23
2016-06-28T12:32:13.526Z,52.52
2016-06-28T12:33:28.231Z,52.52
2016-06-28T12:34:28.233Z,52.23
2016-06-28T12:35:28.242Z,52.42
2016-06-28T12:36:28.254Z,52.42
2016-06-28T12:37:27.686Z,52.23
2016-06-28T12:38:27.685Z,52.13
2016-06-28T12:39:27.691Z,51.84
2016-06-28T12:40:27.707Z,51.93
2016-06-28T12:41:28.302Z,52.03
2016-06-28T12:42:28.320Z,51.93
2016-06-28T12:43:28.331Z,51.84
2016-06-28T12:44:28.333Z,51.93
2016-06-28T12:45:28.347Z,51.93
2016-06-28T12:46:27.758Z,52.03
2016-06-28T12:47:27.777Z,51.84
2016-06-28T12:48:28.399Z,51.93
2016-06-28T12:49:28.406Z,51.93
2016-06-28T12:50:27.819Z,51.93
2016-06-28T12:51:28.430Z,51.93
2016-06-28T12:52:28.437Z,52.13
2016-06-28T12:53:27.828Z,51.93
2016-06-28T12:54:27.842Z,51.93
2016-06-28T12:55:28.453Z,52.03